Highlands Peak, California Weather observations

Data are for observation ending at time listed.
 Day   Time    Ave.   Ave.  Ave.  Vector   Max.   Stn.    Total    Solar   Ave.  
  of    of     Air    Rel.  Wind   Wind    Wind   Baro.  Precip.   Rad.    Soil  
Year   Day     Temp.  Hum.  Speed  Dir.    Gust   Pres.                    Temp. 
2026   (PST)    F      %     mph   deg.    mph     mb.     in.     W/m2     F   
------------------------------------------------------------------------------
 126   20:50   61.6    68    1.0   104      2.4   932.1    0.00       0    67.9
 126   21:00   62.1    67    1.1   145      2.2   932.1    0.00       0    67.8
 126   21:10   62.2    67    0.5   164      1.7   932.2    0.00       0    67.8
 126   21:20   62.1    66    3.8    27      5.6   932.2    0.00       0    67.7
 126   21:30   61.5    67    3.7    24      4.5   932.2    0.00       0    67.6
 126   21:40   61.9    65    4.7     8      6.7   932.2    0.00       0    67.5
 126   21:50   62.2    64    3.8    20      5.0   932.2    0.00       0    67.4
 126   22:00   62.9    63    3.9    18      5.8   932.2    0.00       0    67.3
 126   22:10   64.0    61    2.8    43      5.2   932.2    0.00       0    67.2
 126   22:20   64.8    60    2.7    64      3.2   932.2    0.00       0    67.1
 126   22:30   65.0    59    1.5    22      3.4   932.2    0.00       0    67.1
 126   22:40   64.7    59    3.5    11      5.2   932.3    0.00       0    67.0
 126   22:50   65.0    59    2.3    60      3.4   932.3    0.00       0    66.9
 126   23:00   64.6    61    2.7    89      3.3   932.3    0.00       0    66.8
 126   23:10   64.3    62    3.0    95      3.8   932.4    0.00       0    66.8
 126   23:20   63.9    63    1.5    68      2.3   932.4    0.00       0    66.7
 126   23:30   64.3    62    1.6    80      2.0   932.4    0.00       0    66.6
 126   23:40   64.6    62    1.2    72      1.8   932.4    0.00       0    66.5
 126   23:50   64.3    60    2.2   351      4.6   932.4    0.00       0    66.5
 127    0:00   64.1    60    2.6     9      5.7   932.4    0.00       0    66.4
 127    0:10   64.0    60    3.8    15      5.3   932.4    0.00       0    66.3
 127    0:20   64.5    59    2.6    20      4.0   932.4    0.00       0    66.2
 127    0:30   64.8    58    2.0    13      4.5   932.4    0.00       0    66.1
 127    0:40   64.8    58    3.0     3      4.3   932.4    0.00       0    66.1
 127    0:50   64.8    58    1.8   342      3.4   932.3    0.00       0    66.0
 127    1:00   65.2    58    1.7   281      2.7   932.3    0.00       0    65.9
 127    1:10   65.2    57    1.4   318      2.1   932.2    0.00       0    65.8
 127    1:20   64.8    58    1.5   330      2.5   932.2    0.00       0    65.8
 127    1:30   65.0    58    1.4   324      2.6   932.1    0.00       0    65.7
 127    1:40   64.8    58    2.0   353      3.3   932.1    0.00       0    65.6
 127    1:50   64.7    58    2.2   332      2.9   932.0    0.00       0    65.6
 127    2:00   64.7    58    1.2   319      2.1   932.0    0.00       0    65.5
 127    2:10   65.1    57    1.8   307      2.3   932.0    0.00       0    65.4
 127    2:20   64.7    57    0.9   309      2.0   932.0    0.00       0    65.4
 127    2:30   64.7    58    1.3   300      1.9   931.9    0.00       0    65.3
 127    2:40   64.8    57    1.0   304      2.3   931.9    0.00       0    65.2
 127    2:50   64.4    58    1.7   340      3.1   931.8    0.00       0    65.2
 127    3:00   64.3    57    1.5   330      2.6   931.8    0.00       0    65.1
 127    3:10   64.2    58    2.4   315      3.3   931.7    0.00       0    65.0
 127    3:20   63.7    58    3.6   333      6.0   931.7    0.00       0    64.9
 127    3:30   63.1    59    3.6   353      5.8   931.6    0.00       0    64.9
 127    3:40   63.9    58    2.5   308      3.4   931.6    0.00       0    64.8
 127    3:50   63.9    59    2.5   285      3.4   931.6    0.00       0    64.7
 127    4:00   64.0    58    3.0   313      3.7   931.5    0.00       0    64.7
 127    4:10   64.3    57    2.5   293      3.3   931.5    0.00       0    64.6
 127    4:20   64.3    58    2.9   290      3.5   931.4    0.00       0    64.5
 127    4:30   64.3    56    2.4   301      3.4   931.4    0.00       0    64.5
 127    4:40   64.4    56    3.2   305      4.0   931.4    0.00       0    64.4
 127    4:50   64.4    56    3.2   285      4.1   931.3    0.00       0    64.4
 127    5:00   64.3    55    2.7   290      3.7   931.4    0.00       1    64.3
 127    5:10   64.2    55    2.4   327      3.3   931.5    0.00       3    64.3
 127    5:20   64.0    54    2.9   320      3.3   931.4    0.00       7    64.2
 127    5:30   64.1    54    3.1   314      3.7   931.5    0.00      12    64.2
 127    5:40   64.2    55    3.9   304      4.5   931.5    0.00      16    64.1
 127    5:50   64.8    54    4.4   304      5.9   931.6    0.00      20    64.1
 127    6:00   64.8    53    4.4   304      6.1   931.7    0.00      24    64.0
 127    6:10   65.0    52    3.9   309      5.6   931.7    0.00     122    64.0
 127    6:20   65.7    50    4.5   330      5.9   931.8    0.00     197    63.9
 127    6:30   65.8    51    4.5   319      5.3   931.9    0.00     235    63.8
 127    6:40   66.6    50    3.8   318      5.0   932.0    0.00     273    63.7
 127    6:50   67.1    50    3.0   300      4.6   932.0    0.00     311    63.6
 127    7:00   67.3    49    3.2   269      4.9   932.0    0.00     348    63.6
 127    7:10   67.4    50    2.7   289      3.8   932.0    0.00     378    63.6
 127    7:20   67.7    49    3.2   280      4.8   932.0    0.00     424    63.5
 127    7:30   67.8    49    2.5   261      3.4   932.0    0.00     460    63.5
 127    7:40   67.7    49    2.7   244      4.1   932.0    0.00     497    63.5
 127    7:50   67.7    49    1.9   238      3.7   932.0    0.00     531    63.5
 127    8:00   68.3    48    1.6   230      2.8   932.0    0.00     566    63.5
 127    8:10   68.5    49    1.8   215      3.7   932.0    0.00     599    63.4
 127    8:20   68.9    52    1.3   200      2.1   932.0    0.00     630    63.5
 127    8:30   68.5    59    1.6   178      3.4   932.1    0.00     660    63.5
 127    8:40   68.2    60    2.2   165      3.4   932.1    0.00     690    63.5
 127    8:50   66.9    62    1.8   199      3.4   932.1    0.00     720    63.6
 127    9:00   67.0    63    2.1   192      3.4   932.2    0.00     751    63.6
 127    9:10   66.3    63    2.2   213      3.9   932.2    0.00     786    63.7
 127    9:20   65.1    64    2.0   219      3.6   932.3    0.00     815    63.8
 127    9:30   66.1    63    1.6   198      4.6   932.2    0.00     842    63.9
 127    9:40   67.4    62    2.0   200      3.4   932.2    0.00     866    63.9
 127    9:50   67.4    62    2.9   219      5.4   932.3    0.00     886    64.0
 127   10:00   66.5    62    3.3   219      5.3   932.4    0.00     904    64.1
 127   10:10   66.4    62    3.4   211      6.4   932.5    0.00     920    64.2
 127   10:20   65.9    62    3.4   213      5.5   932.5    0.00     935    64.3
 127   10:30   66.0    63    4.2   220      6.7   932.5    0.00     950    64.4
 127   10:40   66.6    62    3.8   223      6.1   932.6    0.00     963    64.5
 127   10:50   66.8    61    3.5   219      6.2   932.5    0.00     973    64.6
 127   11:00   67.6    60    3.4   223      5.5   932.4    0.00     980    64.7
 127   11:10   67.4    60    3.7   220      5.6   932.4    0.00     986    64.7
 127   11:20   67.7    60    3.5   220      5.8   932.3    0.00     988    64.8
 127   11:30   68.2    60    3.2   220      5.8   932.2    0.00     988    64.9
 127   11:40   68.6    60    3.5   218      5.8   932.1    0.00     989    65.0
 127   11:50   68.5    60    3.2   221      5.3   932.0    0.00     990    65.0
 127   12:00   69.0    60    3.2   222      4.5   932.0    0.00     990    65.1
 127   12:10   69.0    60    3.7   224      5.3   931.9    0.00     988    65.2
 127   12:20   69.9    59    4.0   220      6.4   932.0    0.00     983    65.4
 127   12:30   69.8    58    3.2   225      5.4   932.0    0.00     974    65.5
 127   12:40   69.8    59    4.4   214      6.8   931.9    0.00     968    65.6
 127   12:50   69.9    59    4.1   234      6.9   931.9    0.00     957    65.8
 127   13:00   70.1    57    3.7   225      6.4   931.9    0.00     947    65.9
 127   13:10   70.4    57    3.1   230      5.0   931.8    0.00     935    66.1
 127   13:20   70.6    57    2.8   216      5.6   931.7    0.00     922    66.3
 127   13:30   71.1    56    2.5   227      5.2   931.6    0.00     909    66.5
 127   13:40   72.1    56    2.9   222      5.4   931.5    0.00     885    66.8
 127   13:50   71.7    56    3.7   214      6.4   931.5    0.00     863    67.1
 127   14:00   70.8    57    4.0   221      6.9   931.5    0.00     862    67.5
 127   14:10   70.6    58    4.4   226      6.7   931.5    0.00     842    67.8
 127   14:20   70.8    56    2.7   232      6.6   931.4    0.00     821    68.1
 127   14:30   71.4    55    2.6   220      5.4   931.3    0.00     800    68.4
 127   14:40   71.3    56    2.7   216      4.8   931.2    0.00     777    68.7
 127   14:50   71.6    55    2.9   210      5.1   931.1    0.00     754    69.1
 127   15:00   72.2    55    2.7   205      4.7   931.0    0.00     729    69.4
 127   15:10   72.6    53    2.1   171      4.2   930.9    0.00     703    69.6
 127   15:20   74.5    51    2.3   207      4.7   930.8    0.00     675    69.9
 127   15:30   74.6    49    3.3   217      5.7   930.7    0.00     644    70.2
 127   15:40   73.8    52    2.5   220      3.9   930.7    0.00     614    70.6
 127   15:50   73.4    52    2.8   231      4.5   930.7    0.00     583    70.9
 127   16:00   72.0    53    3.8   222      5.6   930.7    0.00     551    71.3
 127   16:10   70.3    52    3.5   234      5.3   930.7    0.00     518    71.6
 127   16:20   69.7    52    2.9   232      5.6   930.7    0.00     486    71.9
 127   16:30   69.5    53    4.3   236      6.7   930.6    0.00     452    72.2
 127   16:40   69.6    53    2.5   238      4.7   930.6    0.00     418    72.4
 127   16:50   69.6    54    2.3   252      4.3   930.5    0.00     383    72.5
 127   17:00   71.4    52    0.8   312      3.0   930.4    0.00     349    72.4
 127   17:10   72.5    50    1.5   227      4.5   930.4    0.00     313    72.6
 127   17:20   72.5    50    0.6   243      2.0   930.4    0.00     279    72.7
 127   17:30   74.1    47    1.5   224      3.1   930.3    0.00     245    72.8
 127   17:40   73.1    47    3.4   231      5.0   930.4    0.00     211    73.0
 127   17:50   72.4    48    2.7   234      4.2   930.4    0.00     179    73.2
 127   18:00   72.3    48    2.5   265      3.8   930.4    0.00     149    73.2
 127   18:10   72.8    48    2.9   268      6.3   930.3    0.00     120    73.3
 127   18:20   73.0    47    5.4   268      9.3   930.3    0.00      94    73.4
 127   18:30   72.4    49    4.2   263      5.7   930.3    0.00      71    73.4
 127   18:40   72.2    49    3.9   273      5.8   930.3    0.00      49    73.4
 127   18:50   71.7    49    6.0   269      8.2   930.4    0.00      29    73.4
 127   19:00   70.8    50    5.3   268      7.1   930.4    0.00      14    73.4
 127   19:10   70.1    48    6.2   282      7.7   930.5    0.00       4    73.3
 127   19:20   71.4    42    4.7   311      6.6   930.5    0.00       1    73.2
 127   19:30   71.6    37    3.9   320      5.4   930.6    0.00       0    73.1
 127   19:40   71.5    33    3.7   333      5.1   930.6    0.00       0    73.1
 127   19:50   71.3    32    4.3   334      6.1   930.7    0.00       0    73.0
 127   20:00   71.6    30    5.1   325      6.4   930.8    0.00       0    72.9
 127   20:10   72.1    30    5.3   323      6.6   930.9    0.00       0    72.8
 127   20:20   71.5    28    6.6   334      8.1   931.0    0.00       0    72.7
 127   20:30   71.0    28    7.3   320      8.8   931.1    0.00       0    72.6
 127   20:40   71.9    26    5.4   315      6.4   931.1    0.00       0    72.6

Return to Highlands Peak graphs page.


Western Regional Climate Center,wrcc@dri.edu